createdAt,value
2023-05-18T00:01:00.560Z,15.50
2023-05-18T00:03:25.895Z,15.40
2023-05-18T00:05:52.788Z,15.30
2023-05-18T00:08:17.432Z,15.10
2023-05-18T00:10:42.548Z,15.00
2023-05-18T00:13:08.802Z,14.90
2023-05-18T00:15:33.434Z,15.00
2023-05-18T00:17:58.789Z,14.90
2023-05-18T00:20:26.711Z,14.90
2023-05-18T00:22:52.965Z,14.90
2023-05-18T00:25:17.569Z,14.90
2023-05-18T00:27:42.513Z,14.90
2023-05-18T00:30:08.191Z,14.90
2023-05-18T00:32:33.960Z,14.90
2023-05-18T00:34:58.593Z,14.90
2023-05-18T00:37:23.665Z,14.90
2023-05-18T00:39:49.717Z,14.70
2023-05-18T00:42:14.273Z,14.70
2023-05-18T00:44:38.893Z,14.70
2023-05-18T00:47:04.825Z,14.70
2023-05-18T00:49:29.616Z,14.70
2023-05-18T00:51:55.229Z,14.70
2023-05-18T00:54:21.062Z,14.70
2023-05-18T00:56:48.548Z,14.60
2023-05-18T00:59:13.639Z,14.70
2023-05-18T01:01:43.804Z,14.70
2023-05-18T01:04:10.460Z,14.60
2023-05-18T01:06:36.442Z,14.70
2023-05-18T01:09:02.815Z,14.60
2023-05-18T01:11:35.119Z,14.60
2023-05-18T01:14:19.962Z,14.70
2023-05-18T01:16:50.376Z,14.60
2023-05-18T01:19:32.370Z,14.60
2023-05-18T01:22:05.454Z,14.60
2023-05-18T01:24:37.418Z,14.70
2023-05-18T01:27:08.209Z,14.70
2023-05-18T01:29:34.160Z,14.60
2023-05-18T01:31:59.194Z,14.60
2023-05-18T01:34:26.696Z,14.60
2023-05-18T01:36:51.393Z,14.60
2023-05-18T01:39:16.541Z,14.60
2023-05-18T01:41:47.756Z,14.60
2023-05-18T01:44:20.908Z,14.60
2023-05-18T01:46:51.189Z,14.60
2023-05-18T01:49:25.593Z,14.60
2023-05-18T01:51:52.179Z,14.60
2023-05-18T01:54:19.395Z,14.60
2023-05-18T01:56:46.156Z,14.60
2023-05-18T01:59:13.508Z,14.60
2023-05-18T02:01:38.201Z,14.70
2023-05-18T02:04:03.071Z,14.70
2023-05-18T02:06:30.234Z,14.70
2023-05-18T02:08:55.485Z,14.70
2023-05-18T02:11:20.106Z,14.70
2023-05-18T02:13:44.569Z,14.70
2023-05-18T02:16:12.131Z,14.70
2023-05-18T02:18:37.330Z,14.70
2023-05-18T02:21:06.730Z,14.70
2023-05-18T02:23:31.417Z,14.70
2023-05-18T02:25:56.560Z,14.70
2023-05-18T02:28:22.302Z,14.70
2023-05-18T02:30:47.330Z,14.70
2023-05-18T02:33:15.327Z,14.70
2023-05-18T02:35:41.016Z,14.70
2023-05-18T02:38:05.683Z,14.70
2023-05-18T02:40:30.425Z,14.80
2023-05-18T02:42:55.020Z,14.80
2023-05-18T02:45:21.046Z,14.80
2023-05-18T02:47:45.621Z,14.90
2023-05-18T02:50:12.637Z,14.80
2023-05-18T02:52:41.840Z,14.80
2023-05-18T02:55:08.011Z,14.80
2023-05-18T02:57:57.122Z,14.80
2023-05-18T03:00:35.370Z,14.80
2023-05-18T03:03:00.627Z,14.80
2023-05-18T03:05:27.309Z,14.80
2023-05-18T03:07:52.465Z,14.60
2023-05-18T03:10:20.352Z,14.60
2023-05-18T03:12:45.961Z,14.60
2023-05-18T03:15:13.988Z,14.60
2023-05-18T03:17:38.781Z,14.60
2023-05-18T03:20:07.263Z,14.60
2023-05-18T03:22:33.984Z,14.60
2023-05-18T03:24:58.762Z,14.60
2023-05-18T03:27:25.883Z,14.60
2023-05-18T03:29:51.094Z,14.50
2023-05-18T03:32:15.769Z,14.50
2023-05-18T03:34:40.291Z,14.40
2023-05-18T03:37:05.057Z,14.40
2023-05-18T03:39:32.535Z,14.40
2023-05-18T03:41:57.706Z,14.40
2023-05-18T03:44:23.734Z,14.40
2023-05-18T03:46:48.973Z,14.50
2023-05-18T03:49:14.808Z,14.50
2023-05-18T03:51:40.906Z,14.50
2023-05-18T03:54:06.486Z,14.50
2023-05-18T03:56:32.544Z,14.50
2023-05-18T03:58:58.561Z,14.50
2023-05-18T04:01:24.681Z,14.50
2023-05-18T04:03:56.517Z,14.40
2023-05-18T04:16:15.698Z,14.50
2023-05-18T04:18:53.286Z,14.60
2023-05-18T04:21:19.586Z,14.60
2023-05-18T04:23:46.959Z,14.60
2023-05-18T04:26:20.352Z,14.70
2023-05-18T04:28:45.397Z,14.70
2023-05-18T04:31:14.536Z,14.70
2023-05-18T04:33:41.551Z,14.70
2023-05-18T04:36:07.389Z,14.70
2023-05-18T04:38:32.880Z,14.70
2023-05-18T04:41:00.527Z,14.80
2023-05-18T04:43:26.445Z,14.90
2023-05-18T04:45:52.311Z,14.80
2023-05-18T04:48:17.963Z,14.90
2023-05-18T04:50:45.732Z,14.90
2023-05-18T04:53:12.434Z,15.00
2023-05-18T04:55:37.343Z,15.10
2023-05-18T04:58:06.266Z,15.10
2023-05-18T05:00:32.300Z,15.10
2023-05-18T05:02:57.952Z,15.20
2023-05-18T05:05:22.928Z,15.30
2023-05-18T05:07:51.503Z,15.30
2023-05-18T05:10:16.086Z,15.30
2023-05-18T05:12:40.788Z,15.40
2023-05-18T05:15:06.209Z,15.40
2023-05-18T05:17:31.589Z,15.40
2023-05-18T05:19:56.259Z,15.50
2023-05-18T05:22:21.111Z,15.60
2023-05-18T05:24:47.305Z,15.60
2023-05-18T05:27:12.088Z,15.60
2023-05-18T05:29:36.632Z,15.60
2023-05-18T05:32:01.457Z,15.70
2023-05-18T05:34:26.334Z,15.80
2023-05-18T05:36:51.679Z,15.80
2023-05-18T05:39:21.374Z,15.90
2023-05-18T05:41:48.556Z,16.00
2023-05-18T05:44:13.332Z,16.10
2023-05-18T05:46:37.994Z,16.20
2023-05-18T05:49:04.183Z,16.30
2023-05-18T05:51:29.177Z,16.30
2023-05-18T05:53:53.702Z,16.40
2023-05-18T05:56:19.229Z,16.30
2023-05-18T05:58:46.302Z,16.30
2023-05-18T06:01:11.485Z,16.40
2023-05-18T06:03:37.412Z,16.40
2023-05-18T06:06:04.049Z,16.40
2023-05-18T06:08:28.557Z,16.50
2023-05-18T06:10:55.083Z,16.50
2023-05-18T06:13:20.087Z,16.50
2023-05-18T06:15:51.668Z,16.50
2023-05-18T06:18:18.041Z,16.50
2023-05-18T06:20:43.449Z,16.60
2023-05-18T06:23:08.597Z,16.70
2023-05-18T06:25:50.976Z,16.70
2023-05-18T06:28:44.952Z,16.60
2023-05-18T06:31:23.438Z,16.60
2023-05-18T06:33:52.505Z,16.80
2023-05-18T06:36:17.769Z,16.60
2023-05-18T06:38:42.515Z,16.60
2023-05-18T06:41:07.310Z,16.60
2023-05-18T06:43:32.128Z,16.60
2023-05-18T06:46:24.574Z,16.60
2023-05-18T06:48:53.169Z,16.70
2023-05-18T06:51:19.633Z,16.70
2023-05-18T06:53:45.946Z,16.80
2023-05-18T06:56:11.935Z,17.00
2023-05-18T06:58:39.740Z,17.00
2023-05-18T07:01:04.538Z,17.10
2023-05-18T07:03:31.114Z,17.20
2023-05-18T07:05:56.126Z,17.30
2023-05-18T07:08:20.697Z,17.40
2023-05-18T07:10:45.193Z,17.40
2023-05-18T07:13:09.834Z,17.60
2023-05-18T07:15:35.029Z,17.60
2023-05-18T07:17:59.895Z,17.70
2023-05-18T07:20:27.269Z,17.80
2023-05-18T07:22:52.443Z,17.90
2023-05-18T07:25:17.142Z,18.00
2023-05-18T07:27:41.920Z,17.90
2023-05-18T07:30:08.104Z,17.90
2023-05-18T07:32:32.844Z,18.00
2023-05-18T07:34:57.456Z,18.00
2023-05-18T07:37:23.561Z,18.10
2023-05-18T07:39:48.212Z,18.10
2023-05-18T07:42:12.769Z,18.30
2023-05-18T07:44:37.287Z,18.50
2023-05-18T07:47:02.550Z,18.50
2023-05-18T07:49:27.227Z,18.50
2023-05-18T07:51:53.452Z,18.50
2023-05-18T07:54:20.614Z,18.50
2023-05-18T07:56:45.535Z,18.40
2023-05-18T07:59:11.634Z,18.50
2023-05-18T08:01:37.822Z,18.60
2023-05-18T08:04:03.029Z,18.70
2023-05-18T08:06:28.094Z,18.80
2023-05-18T08:08:52.780Z,19.00
2023-05-18T08:11:19.480Z,19.10
2023-05-18T08:13:44.165Z,19.00
2023-05-18T08:16:12.127Z,19.00
2023-05-18T08:18:37.581Z,18.90
2023-05-18T08:21:04.315Z,18.90
2023-05-18T08:23:28.892Z,19.10
2023-05-18T08:25:53.953Z,19.30
2023-05-18T08:28:20.040Z,19.40
2023-05-18T08:30:44.674Z,19.40
2023-05-18T08:33:09.504Z,19.40
2023-05-18T08:35:35.436Z,19.50
2023-05-18T08:38:00.109Z,19.50
2023-05-18T08:40:28.416Z,19.60
2023-05-18T08:43:01.528Z,19.70
2023-05-18T08:45:34.052Z,19.90
2023-05-18T08:48:01.547Z,20.00
2023-05-18T08:50:27.907Z,20.20
2023-05-18T08:52:57.275Z,20.30
2023-05-18T08:55:24.269Z,20.50
2023-05-18T08:57:56.608Z,20.70
2023-05-18T09:00:23.633Z,20.80
2023-05-18T09:02:50.879Z,21.00
2023-05-18T09:05:17.431Z,21.20
2023-05-18T09:07:44.002Z,21.30
2023-05-18T09:10:11.113Z,21.40
2023-05-18T09:12:37.409Z,21.60
2023-05-18T09:15:03.069Z,21.50
2023-05-18T09:17:31.131Z,21.40
2023-05-18T09:19:57.915Z,21.40
2023-05-18T09:22:23.154Z,21.60
2023-05-18T09:24:47.823Z,21.80
2023-05-18T09:27:12.961Z,21.80
2023-05-18T09:29:37.659Z,21.80
2023-05-18T09:32:05.222Z,21.90
2023-05-18T09:34:41.133Z,21.90
2023-05-18T09:37:07.676Z,22.00
2023-05-18T09:39:32.308Z,22.10
2023-05-18T09:41:58.383Z,21.90
2023-05-18T09:44:32.434Z,21.80
2023-05-18T09:46:58.195Z,21.50
2023-05-18T09:49:24.124Z,21.50
2023-05-18T09:51:51.085Z,21.60
2023-05-18T09:54:17.449Z,21.70
2023-05-18T09:56:42.300Z,21.80
2023-05-18T09:59:11.219Z,21.80
2023-05-18T10:01:36.220Z,21.80
2023-05-18T10:04:05.364Z,21.80
2023-05-18T10:06:30.709Z,21.90
2023-05-18T10:08:58.277Z,21.80
2023-05-18T10:11:24.866Z,21.90
2023-05-18T10:13:54.938Z,21.90
2023-05-18T10:16:21.088Z,21.80
2023-05-18T10:18:47.873Z,21.80
2023-05-18T10:21:14.510Z,21.80
2023-05-18T10:23:41.607Z,22.00
2023-05-18T10:26:09.903Z,22.00
2023-05-18T10:28:40.188Z,22.00
2023-05-18T10:31:05.850Z,22.00
2023-05-18T10:33:32.118Z,22.00
2023-05-18T10:35:56.921Z,22.10
2023-05-18T10:38:23.009Z,22.20
2023-05-18T10:40:49.678Z,22.40
2023-05-18T10:43:17.398Z,22.60
2023-05-18T10:45:48.506Z,22.50
2023-05-18T10:48:14.933Z,22.40
2023-05-18T10:50:41.403Z,22.50
2023-05-18T10:53:07.695Z,22.40
2023-05-18T10:55:32.676Z,22.30
2023-05-18T10:58:00.352Z,22.30
2023-05-18T11:00:25.095Z,22.30
2023-05-18T11:02:51.910Z,22.30
2023-05-18T11:05:18.339Z,22.60
2023-05-18T11:07:46.894Z,22.60
2023-05-18T11:10:12.545Z,22.60
2023-05-18T11:12:39.463Z,22.70
2023-05-18T11:15:03.893Z,22.90
2023-05-18T11:17:30.732Z,23.10
2023-05-18T11:20:17.514Z,23.00
2023-05-18T11:22:44.156Z,22.80
2023-05-18T11:25:10.201Z,22.90
2023-05-18T11:27:35.217Z,23.10
2023-05-18T11:30:14.741Z,23.10
2023-05-18T11:32:40.042Z,23.10
2023-05-18T11:35:09.055Z,23.20
2023-05-18T11:37:51.871Z,23.10
2023-05-18T11:40:47.939Z,23.00
2023-05-18T11:43:21.337Z,22.70
2023-05-18T11:45:55.108Z,22.70
2023-05-18T11:48:23.083Z,22.70
2023-05-18T11:50:48.275Z,22.60
2023-05-18T11:53:19.678Z,22.50
2023-05-18T11:55:45.453Z,22.40
2023-05-18T11:58:10.849Z,22.20
2023-05-18T12:00:35.986Z,22.20
2023-05-18T12:03:03.325Z,22.00
2023-05-18T12:05:32.578Z,22.00
2023-05-18T12:07:57.258Z,22.00
2023-05-18T12:10:24.184Z,22.00
2023-05-18T12:12:50.506Z,22.10
2023-05-18T12:15:16.972Z,22.30
2023-05-18T12:17:42.932Z,22.50
2023-05-18T12:20:09.265Z,22.60
2023-05-18T12:22:33.760Z,22.70
2023-05-18T12:24:58.178Z,22.70
2023-05-18T12:27:26.586Z,22.70
2023-05-18T12:29:52.133Z,22.70
2023-05-18T12:32:18.273Z,22.60
2023-05-18T12:34:46.014Z,22.80
2023-05-18T12:37:10.449Z,23.00
2023-05-18T12:39:35.277Z,23.20
2023-05-18T12:42:11.102Z,23.30
2023-05-18T12:44:37.133Z,23.50
2023-05-18T12:47:01.533Z,23.50
2023-05-18T12:49:26.633Z,23.30
2023-05-18T12:51:57.021Z,23.10
2023-05-18T12:54:30.698Z,23.10
2023-05-18T12:57:02.014Z,22.80
2023-05-18T12:59:27.891Z,22.80
2023-05-18T13:01:54.571Z,22.70
2023-05-18T13:04:19.269Z,22.70
2023-05-18T13:06:44.542Z,22.70
2023-05-18T13:09:12.258Z,22.90
2023-05-18T13:11:36.994Z,23.00
2023-05-18T13:14:03.446Z,23.20
2023-05-18T13:16:30.532Z,23.40
2023-05-18T13:19:01.186Z,23.50
2023-05-18T13:21:25.772Z,23.60
2023-05-18T13:23:50.100Z,23.70
2023-05-18T13:26:15.214Z,23.60
2023-05-18T13:28:39.608Z,23.70
2023-05-18T13:31:04.168Z,23.60
2023-05-18T13:33:28.559Z,23.50
2023-05-18T13:35:54.441Z,23.40
2023-05-18T13:38:18.902Z,23.30
2023-05-18T13:40:43.709Z,23.20
2023-05-18T13:43:12.816Z,23.10
2023-05-18T13:45:38.423Z,23.20
2023-05-18T13:48:09.709Z,23.20
2023-05-18T13:50:34.834Z,23.10
2023-05-18T13:53:01.035Z,23.00
2023-05-18T13:55:25.689Z,22.90
2023-05-18T13:57:49.980Z,22.80
2023-05-18T14:00:17.170Z,22.60
2023-05-18T14:02:42.287Z,22.60
2023-05-18T14:05:08.684Z,22.60
2023-05-18T14:07:32.996Z,22.60
2023-05-18T14:09:58.803Z,22.60
2023-05-18T14:12:23.364Z,22.60
2023-05-18T14:14:48.471Z,22.50
2023-05-18T14:17:13.737Z,22.60
2023-05-18T14:19:38.247Z,22.60
2023-05-18T14:22:02.747Z,22.60
2023-05-18T14:24:27.133Z,22.70
2023-05-18T14:26:53.830Z,22.60
2023-05-18T14:29:18.345Z,22.60
2023-05-18T14:31:42.874Z,22.60
2023-05-18T14:34:07.355Z,22.60
2023-05-18T14:36:32.390Z,22.70
2023-05-18T14:38:57.324Z,22.70
2023-05-18T14:41:22.525Z,22.60
2023-05-18T14:43:51.232Z,22.50
2023-05-18T14:46:15.776Z,22.60
2023-05-18T14:48:40.841Z,22.60
2023-05-18T14:51:05.330Z,22.60
2023-05-18T14:53:29.726Z,22.70
2023-05-18T14:55:54.154Z,22.70
2023-05-18T14:58:18.605Z,22.80
2023-05-18T15:00:44.805Z,23.00
2023-05-18T15:03:09.326Z,23.20
2023-05-18T15:05:33.980Z,23.00
2023-05-18T15:07:58.674Z,23.00
2023-05-18T15:10:23.406Z,22.90
2023-05-18T15:12:47.963Z,23.00
2023-05-18T15:15:13.077Z,22.70
2023-05-18T15:17:39.357Z,22.60
2023-05-18T15:20:04.760Z,22.50
2023-05-18T15:22:30.106Z,22.50
2023-05-18T15:24:54.444Z,22.40
2023-05-18T15:27:19.456Z,22.50
2023-05-18T15:29:43.830Z,22.50
2023-05-18T15:32:09.015Z,22.50
2023-05-18T15:34:36.063Z,22.40
2023-05-18T15:37:00.527Z,22.40
2023-05-18T15:39:24.997Z,22.10
2023-05-18T15:41:49.664Z,22.10
2023-05-18T15:44:14.217Z,22.00
2023-05-18T15:46:39.233Z,22.10
2023-05-18T15:49:04.086Z,22.10
2023-05-18T15:51:30.080Z,22.10
2023-05-18T15:53:54.528Z,21.90
2023-05-18T15:56:19.037Z,21.90
2023-05-18T15:58:43.437Z,21.80
2023-05-18T16:01:07.933Z,21.60
2023-05-18T16:03:32.870Z,21.60
2023-05-18T16:05:57.423Z,21.70
2023-05-18T16:08:23.255Z,21.60
2023-05-18T16:10:47.815Z,21.50
2023-05-18T16:13:12.649Z,21.50
2023-05-18T16:15:37.496Z,21.40
2023-05-18T16:18:02.305Z,21.30
2023-05-18T16:20:26.857Z,21.30
2023-05-18T16:22:51.533Z,21.20
2023-05-18T16:25:17.527Z,21.10
2023-05-18T16:27:42.008Z,21.10
2023-05-18T16:30:15.434Z,21.00
2023-05-18T16:32:39.896Z,21.10
2023-05-18T16:35:04.891Z,21.00
2023-05-18T16:37:29.659Z,21.00
2023-05-18T16:39:54.163Z,21.00
2023-05-18T16:42:24.352Z,21.00
2023-05-18T16:44:48.952Z,21.00
2023-05-18T16:47:13.947Z,21.00
2023-05-18T16:49:38.327Z,21.10
2023-05-18T16:52:03.664Z,21.00
2023-05-18T16:54:28.138Z,21.00
2023-05-18T16:56:52.569Z,21.00
2023-05-18T16:59:20.530Z,20.90
2023-05-18T17:01:45.354Z,20.80
2023-05-18T17:04:10.298Z,20.80
2023-05-18T17:06:35.224Z,20.70
2023-05-18T17:09:00.906Z,20.70
2023-05-18T17:11:27.123Z,20.60
2023-05-18T17:13:52.537Z,20.50
2023-05-18T17:16:20.286Z,20.40
2023-05-18T17:18:45.108Z,20.40
2023-05-18T17:21:09.545Z,20.40
2023-05-18T17:23:34.621Z,20.30
2023-05-18T17:26:05.941Z,20.30
2023-05-18T17:28:31.120Z,20.30
2023-05-18T17:30:55.846Z,20.30
2023-05-18T17:33:22.161Z,20.30
2023-05-18T17:35:46.701Z,20.20
2023-05-18T17:38:11.197Z,20.20
2023-05-18T17:40:35.822Z,20.10
2023-05-18T17:43:00.276Z,20.10
2023-05-18T17:45:24.765Z,20.00
2023-05-18T17:47:49.298Z,20.00
2023-05-18T17:50:18.271Z,19.90
2023-05-18T17:52:42.882Z,19.80
2023-05-18T17:55:08.505Z,19.80
2023-05-18T17:57:33.799Z,19.70
2023-05-18T17:59:58.476Z,19.80
2023-05-18T18:02:23.346Z,19.70
2023-05-18T18:04:48.939Z,19.70
2023-05-18T18:07:15.015Z,19.60
2023-05-18T18:09:39.541Z,19.60
2023-05-18T18:12:04.201Z,19.60
2023-05-18T18:14:28.808Z,19.60
2023-05-18T18:16:53.428Z,19.60
2023-05-18T18:19:23.895Z,19.60
2023-05-18T18:21:51.761Z,19.60
2023-05-18T18:24:21.528Z,19.50
2023-05-18T18:26:46.642Z,19.40
2023-05-18T18:29:47.112Z,19.40
2023-05-18T18:32:30.031Z,19.30
2023-05-18T18:34:55.038Z,19.30
2023-05-18T18:37:20.089Z,19.20
2023-05-18T18:40:45.197Z,19.20
2023-05-18T18:43:23.950Z,19.20
2023-05-18T18:45:48.839Z,19.20
2023-05-18T18:48:13.952Z,19.20
2023-05-18T18:50:39.581Z,19.20
2023-05-18T18:53:04.794Z,19.10
2023-05-18T18:55:30.210Z,19.10
2023-05-18T18:57:56.064Z,19.00
2023-05-18T19:00:24.035Z,18.90
2023-05-18T19:02:49.848Z,18.90
2023-05-18T19:05:14.722Z,18.90
2023-05-18T19:07:39.904Z,18.80
2023-05-18T19:10:06.195Z,18.70
2023-05-18T19:12:31.412Z,18.70
2023-05-18T19:14:57.089Z,18.60
2023-05-18T19:17:23.848Z,18.60
2023-05-18T19:19:50.373Z,18.50
2023-05-18T19:22:15.990Z,18.50
2023-05-18T19:24:40.807Z,18.50
2023-05-18T19:27:06.042Z,18.40
2023-05-18T19:29:31.088Z,18.40
2023-05-18T19:32:00.597Z,18.40
2023-05-18T19:34:27.600Z,18.40
2023-05-18T19:36:53.576Z,18.30
2023-05-18T19:39:19.514Z,18.30
2023-05-18T19:41:44.922Z,18.30
2023-05-18T19:44:10.667Z,18.30
2023-05-18T19:46:38.453Z,18.30
2023-05-18T19:49:03.643Z,18.30
2023-05-18T19:51:32.294Z,18.30
2023-05-18T19:53:57.084Z,18.20
2023-05-18T19:56:23.332Z,18.20
2023-05-18T19:58:48.063Z,18.20
2023-05-18T20:01:13.376Z,18.30
2023-05-18T20:03:43.169Z,18.30
2023-05-18T20:06:07.905Z,18.40
2023-05-18T20:08:33.830Z,18.40
2023-05-18T20:11:00.338Z,18.40
2023-05-18T20:13:25.949Z,18.30
2023-05-18T20:15:50.955Z,18.30
2023-05-18T20:18:15.823Z,18.30
2023-05-18T20:20:41.317Z,18.30
2023-05-18T20:23:06.943Z,18.20
2023-05-18T20:25:35.517Z,18.20
2023-05-18T20:28:01.596Z,18.20
2023-05-18T20:30:26.303Z,18.10
2023-05-18T20:32:51.467Z,18.00
2023-05-18T20:35:17.162Z,18.00
2023-05-18T20:37:44.437Z,18.00
2023-05-18T20:40:10.473Z,18.00
2023-05-18T20:42:47.799Z,17.80
2023-05-18T20:45:12.851Z,17.80
2023-05-18T20:47:37.512Z,17.70
2023-05-18T20:50:03.402Z,17.80
2023-05-18T20:52:30.266Z,17.70
2023-05-18T20:54:56.769Z,17.70
2023-05-18T20:57:21.414Z,17.80
2023-05-18T20:59:47.320Z,17.70
2023-05-18T21:02:11.948Z,17.80
2023-05-18T21:04:36.607Z,17.70
2023-05-18T21:07:01.550Z,17.70
2023-05-18T21:09:26.299Z,17.60
2023-05-18T21:11:51.221Z,17.60
2023-05-18T21:14:16.072Z,17.60
2023-05-18T21:16:43.394Z,17.60
2023-05-18T21:19:08.631Z,17.60
2023-05-18T21:21:33.384Z,17.50
2023-05-18T21:23:58.337Z,17.60
2023-05-18T21:26:23.266Z,17.50
2023-05-18T21:28:48.232Z,17.50
2023-05-18T21:31:13.261Z,17.50
2023-05-18T21:33:39.573Z,17.40
2023-05-18T21:36:04.434Z,17.40
2023-05-18T21:38:29.334Z,17.40
2023-05-18T21:40:54.081Z,17.40
2023-05-18T21:43:18.677Z,17.30
2023-05-18T21:45:43.418Z,17.40
2023-05-18T21:48:08.576Z,17.40
2023-05-18T21:50:37.320Z,17.20
2023-05-18T21:53:04.566Z,17.10
2023-05-18T21:55:29.075Z,17.10
2023-05-18T21:57:53.868Z,17.10
2023-05-18T22:00:19.183Z,17.10
2023-05-18T22:02:47.292Z,17.00
2023-05-18T22:05:12.156Z,17.00
2023-05-18T22:07:38.368Z,17.00
2023-05-18T22:10:03.041Z,17.00
2023-05-18T22:12:29.081Z,16.90
2023-05-18T22:14:54.069Z,16.90
2023-05-18T22:17:19.489Z,16.90
2023-05-18T22:19:44.845Z,16.90
2023-05-18T22:22:13.903Z,16.90
2023-05-18T22:24:47.776Z,16.90
2023-05-18T22:27:12.495Z,16.90
2023-05-18T22:29:37.064Z,16.90
2023-05-18T22:32:01.673Z,16.90
2023-05-18T22:34:26.432Z,17.00
2023-05-18T22:36:51.060Z,16.90
2023-05-18T22:39:17.504Z,17.00
2023-05-18T22:41:43.661Z,17.00
2023-05-18T22:44:08.629Z,17.00
2023-05-18T22:46:33.493Z,17.00
2023-05-18T22:48:58.476Z,16.90
2023-05-18T22:51:23.615Z,16.90
2023-05-18T22:53:48.526Z,16.90
2023-05-18T22:56:13.331Z,16.90
2023-05-18T22:58:39.495Z,16.90
2023-05-18T23:01:04.105Z,16.90
2023-05-18T23:03:28.720Z,16.80
2023-05-18T23:05:53.891Z,16.80
2023-05-18T23:08:18.554Z,16.70
2023-05-18T23:10:44.529Z,16.60
2023-05-18T23:13:09.308Z,16.60
2023-05-18T23:15:35.657Z,16.60
2023-05-18T23:18:12.770Z,16.60
2023-05-18T23:20:38.734Z,16.60
2023-05-18T23:23:03.370Z,16.60
2023-05-18T23:25:28.008Z,16.70
2023-05-18T23:27:52.493Z,16.70
2023-05-18T23:30:17.448Z,16.80
2023-05-18T23:32:45.518Z,16.80
2023-05-18T23:35:13.864Z,16.90
2023-05-18T23:37:43.213Z,16.90
2023-05-18T23:40:13.245Z,16.80
2023-05-18T23:42:38.142Z,16.80
2023-05-18T23:45:03.280Z,16.70
2023-05-18T23:47:31.621Z,16.70
2023-05-18T23:49:58.900Z,16.80
2023-05-18T23:52:27.266Z,16.70
2023-05-18T23:54:55.862Z,16.60
2023-05-18T23:57:21.319Z,16.50
2023-05-18T23:59:46.801Z,16.50
